createdAt,value
2017-09-15T00:00:00.832Z,51.81
2017-09-15T00:02:28.412Z,52.00
2017-09-15T00:04:55.922Z,51.87
2017-09-15T00:07:23.488Z,51.28
2017-09-15T00:09:51.084Z,51.46
2017-09-15T00:12:18.628Z,51.11
2017-09-15T00:14:46.190Z,50.54
2017-09-15T00:17:13.818Z,50.58
2017-09-15T00:19:41.404Z,50.85
2017-09-15T00:22:08.952Z,50.90
2017-09-15T00:24:36.527Z,51.38
2017-09-15T00:27:04.063Z,51.09
2017-09-15T00:29:31.667Z,51.09
2017-09-15T00:31:59.621Z,51.81
2017-09-15T00:34:27.143Z,50.64
2017-09-15T00:36:54.676Z,50.31
2017-09-15T00:39:22.307Z,51.73
2017-09-15T00:41:49.858Z,52.22
2017-09-15T00:44:17.418Z,52.83
2017-09-15T00:46:45.055Z,52.68
2017-09-15T00:49:12.600Z,52.24
2017-09-15T00:51:40.205Z,52.92
2017-09-15T00:54:07.789Z,53.19
2017-09-15T00:56:35.337Z,52.98
2017-09-15T00:59:03.267Z,52.99
2017-09-15T01:01:30.857Z,53.34
2017-09-15T01:03:58.462Z,53.19
2017-09-15T01:06:26.029Z,53.36
2017-09-15T01:08:53.606Z,53.27
2017-09-15T01:11:21.177Z,53.29
2017-09-15T01:13:48.710Z,53.19
2017-09-15T01:16:16.496Z,52.87
2017-09-15T01:18:44.075Z,52.75
2017-09-15T01:21:11.748Z,52.42
2017-09-15T01:23:39.371Z,52.07
2017-09-15T01:26:06.921Z,51.66
2017-09-15T01:28:34.495Z,51.65
2017-09-15T01:31:02.077Z,51.85
2017-09-15T01:33:29.652Z,51.66
2017-09-15T01:35:57.213Z,51.63
2017-09-15T01:38:24.800Z,51.24
2017-09-15T01:40:52.386Z,50.96
2017-09-15T01:43:19.908Z,51.18
2017-09-15T01:45:47.498Z,51.40
2017-09-15T01:48:15.041Z,51.76
2017-09-15T01:50:42.566Z,51.58
2017-09-15T01:53:10.118Z,51.52
2017-09-15T01:55:37.636Z,51.13
2017-09-15T01:58:05.217Z,50.73
2017-09-15T02:00:32.830Z,51.27
2017-09-15T02:03:00.416Z,51.19
2017-09-15T02:05:28.850Z,51.52
2017-09-15T02:07:56.438Z,51.44
2017-09-15T02:10:24.033Z,51.62
2017-09-15T02:12:51.581Z,51.91
2017-09-15T02:15:19.175Z,52.04
2017-09-15T02:17:47.021Z,52.13
2017-09-15T02:20:14.634Z,52.14
2017-09-15T02:22:42.209Z,52.22
2017-09-15T02:25:09.950Z,52.07
2017-09-15T02:27:37.470Z,52.17
2017-09-15T02:30:06.363Z,52.42
2017-09-15T02:32:34.128Z,52.34
2017-09-15T02:35:01.660Z,52.42
2017-09-15T02:37:29.295Z,52.42
2017-09-15T02:39:56.897Z,52.75
2017-09-15T02:42:24.479Z,52.23
2017-09-15T02:44:52.070Z,52.34
2017-09-15T02:47:19.675Z,52.57
2017-09-15T02:49:47.242Z,52.57
2017-09-15T02:52:14.908Z,52.84
2017-09-15T02:54:42.461Z,52.71
2017-09-15T02:57:10.039Z,52.91
2017-09-15T02:59:37.615Z,53.01
2017-09-15T03:02:05.227Z,52.85
2017-09-15T03:04:32.742Z,53.39
2017-09-15T03:07:00.508Z,53.41
2017-09-15T03:09:28.074Z,53.48
2017-09-15T03:11:55.598Z,53.86
2017-09-15T03:14:23.133Z,54.01
2017-09-15T03:16:50.749Z,53.66
2017-09-15T03:19:18.334Z,53.85
2017-09-15T03:21:45.938Z,53.96
2017-09-15T03:24:13.544Z,53.88
2017-09-15T03:26:41.113Z,53.57
2017-09-15T03:29:08.633Z,53.73
2017-09-15T03:31:36.219Z,54.28
2017-09-15T03:34:04.025Z,54.47
2017-09-15T03:36:31.553Z,54.46
2017-09-15T03:38:59.140Z,54.94
2017-09-15T03:41:26.708Z,54.63
2017-09-15T03:43:54.291Z,54.90
2017-09-15T03:46:21.908Z,54.54
2017-09-15T03:48:49.464Z,55.19
2017-09-15T03:51:17.062Z,55.49
2017-09-15T03:53:44.674Z,55.66
2017-09-15T03:56:12.207Z,55.79
2017-09-15T03:58:39.731Z,55.58
2017-09-15T04:01:07.296Z,55.81
2017-09-15T04:03:34.818Z,55.87
2017-09-15T04:06:02.336Z,56.13
2017-09-15T04:08:29.975Z,56.47
2017-09-15T04:10:57.552Z,56.43
2017-09-15T04:13:25.310Z,56.46
2017-09-15T04:15:52.984Z,56.56
2017-09-15T04:18:20.593Z,56.00
2017-09-15T04:20:48.298Z,55.76
2017-09-15T04:23:15.926Z,54.89
2017-09-15T04:25:43.583Z,54.29
2017-09-15T04:28:11.314Z,52.57
2017-09-15T04:30:38.950Z,52.51
2017-09-15T04:33:07.149Z,50.49
2017-09-15T04:35:35.296Z,50.47
2017-09-15T04:38:05.051Z,49.61
2017-09-15T04:40:33.031Z,48.90
2017-09-15T04:43:02.797Z,47.67
2017-09-15T04:45:31.300Z,46.73
2017-09-15T04:48:03.741Z,46.33
2017-09-15T04:50:32.288Z,46.62
2017-09-15T04:52:59.910Z,46.31
2017-09-15T04:55:27.448Z,45.86
2017-09-15T04:57:55.021Z,44.77
2017-09-15T05:00:22.982Z,43.45
2017-09-15T05:02:50.506Z,43.47
2017-09-15T05:05:18.066Z,42.15
2017-09-15T05:07:45.655Z,42.34
2017-09-15T05:10:13.192Z,41.31
2017-09-15T05:12:40.732Z,39.99
2017-09-15T05:15:08.341Z,39.69
2017-09-15T05:17:35.875Z,39.18
2017-09-15T05:20:03.721Z,39.01
2017-09-15T05:22:31.324Z,38.41
2017-09-15T05:24:58.911Z,39.36
2017-09-15T05:27:26.917Z,38.65
2017-09-15T05:29:54.508Z,37.00
2017-09-15T05:32:22.081Z,36.38
2017-09-15T05:34:49.718Z,35.61
2017-09-15T05:37:18.254Z,35.95
2017-09-15T05:39:45.849Z,34.17
2017-09-15T05:42:17.330Z,34.03
2017-09-15T05:44:51.383Z,33.76
2017-09-15T05:47:19.087Z,34.76
2017-09-15T05:49:46.621Z,34.32
2017-09-15T05:52:14.242Z,34.38
2017-09-15T05:54:41.826Z,32.82
2017-09-15T05:57:09.470Z,32.00
2017-09-15T05:59:37.384Z,32.06
2017-09-15T06:02:04.957Z,31.34
2017-09-15T06:04:32.496Z,30.54
2017-09-15T06:07:00.041Z,30.67
2017-09-15T06:09:27.639Z,30.46
2017-09-15T06:11:55.186Z,30.71
2017-09-15T06:14:22.743Z,30.87
2017-09-15T06:16:50.323Z,29.58
2017-09-15T06:19:17.865Z,30.74
2017-09-15T06:21:45.431Z,32.09
2017-09-15T06:24:13.012Z,31.81
2017-09-15T06:26:40.828Z,31.12
2017-09-15T06:29:08.403Z,31.09
2017-09-15T06:31:36.073Z,30.55
2017-09-15T06:34:03.652Z,29.18
2017-09-15T06:36:31.379Z,28.89
2017-09-15T06:38:59.040Z,28.10
2017-09-15T06:41:27.174Z,27.81
2017-09-15T06:43:55.059Z,28.02
2017-09-15T06:46:22.662Z,28.19
2017-09-15T06:48:50.418Z,28.12
2017-09-15T06:51:17.968Z,27.53
2017-09-15T06:53:45.529Z,28.36
2017-09-15T06:56:13.080Z,28.61
2017-09-15T06:58:40.619Z,28.36
2017-09-15T07:01:08.532Z,28.69
2017-09-15T07:03:36.093Z,28.13
2017-09-15T07:06:03.658Z,27.95
2017-09-15T07:08:31.303Z,27.37
2017-09-15T07:10:59.074Z,27.05
2017-09-15T07:13:26.946Z,27.32
2017-09-15T07:15:54.813Z,27.06
2017-09-15T07:18:22.431Z,26.24
2017-09-15T07:20:50.048Z,26.34
2017-09-15T07:23:17.649Z,26.60
2017-09-15T07:25:45.243Z,26.66
2017-09-15T07:28:12.847Z,26.38
2017-09-15T07:30:40.639Z,27.07
2017-09-15T07:33:08.261Z,26.62
2017-09-15T07:35:35.796Z,26.57
2017-09-15T07:38:03.387Z,26.12
2017-09-15T07:40:30.972Z,26.27
2017-09-15T07:42:58.750Z,26.35
2017-09-15T07:45:26.382Z,25.65
2017-09-15T07:47:54.134Z,25.27
2017-09-15T07:50:21.677Z,25.63
2017-09-15T07:52:49.283Z,25.39
2017-09-15T07:55:17.070Z,24.85
2017-09-15T07:57:44.603Z,24.89
2017-09-15T08:00:12.338Z,23.81
2017-09-15T08:02:40.104Z,24.71
2017-09-15T08:05:08.870Z,25.29
2017-09-15T08:07:36.515Z,25.11
2017-09-15T08:10:04.291Z,23.73
2017-09-15T08:12:31.865Z,24.80
2017-09-15T08:14:59.468Z,23.57
2017-09-15T08:17:27.045Z,24.89
2017-09-15T08:19:54.607Z,24.63
2017-09-15T08:22:22.207Z,25.34
2017-09-15T08:24:50.039Z,25.10
2017-09-15T08:27:17.836Z,23.58
2017-09-15T08:29:45.621Z,23.96
2017-09-15T08:32:13.302Z,23.84
2017-09-15T08:34:40.837Z,22.81
2017-09-15T08:37:08.577Z,21.81
2017-09-15T08:39:36.333Z,22.38
2017-09-15T08:42:03.934Z,23.86
2017-09-15T08:44:32.224Z,23.69
2017-09-15T08:46:59.861Z,23.08
2017-09-15T08:49:27.697Z,22.83
2017-09-15T08:51:55.320Z,22.28
2017-09-15T08:54:22.953Z,22.05
2017-09-15T08:56:50.515Z,21.01
2017-09-15T08:59:18.127Z,21.53
2017-09-15T09:01:45.751Z,20.96
2017-09-15T09:04:13.395Z,21.13
2017-09-15T09:06:40.992Z,22.05
2017-09-15T09:09:08.646Z,21.57
2017-09-15T09:11:40.668Z,22.20
2017-09-15T09:14:08.377Z,22.04
2017-09-15T09:16:36.519Z,22.39
2017-09-15T09:19:07.129Z,21.25
2017-09-15T09:21:34.745Z,21.11
2017-09-15T09:24:02.294Z,20.42
2017-09-15T09:26:32.527Z,20.21
2017-09-15T09:29:00.185Z,20.28
2017-09-15T09:31:27.763Z,20.65
2017-09-15T09:33:55.376Z,21.72
2017-09-15T09:36:22.961Z,21.82
2017-09-15T09:38:50.758Z,20.62
2017-09-15T09:41:18.523Z,21.51
2017-09-15T09:43:46.934Z,21.37
2017-09-15T09:46:14.500Z,20.93
2017-09-15T09:48:42.087Z,21.00
2017-09-15T09:51:09.827Z,21.01
2017-09-15T09:53:37.559Z,21.50
2017-09-15T09:56:05.127Z,20.89
2017-09-15T09:58:32.662Z,21.99
2017-09-15T10:01:00.278Z,21.94
2017-09-15T10:03:27.867Z,21.68
2017-09-15T10:05:55.467Z,22.22
2017-09-15T10:08:23.104Z,22.14
2017-09-15T10:10:50.723Z,22.40
2017-09-15T10:13:18.255Z,22.64
2017-09-15T10:15:45.870Z,22.62
2017-09-15T10:18:13.453Z,23.17
2017-09-15T10:20:40.999Z,22.25
2017-09-15T10:23:08.610Z,21.80
2017-09-15T10:25:36.223Z,21.82
2017-09-15T10:28:03.977Z,21.83
2017-09-15T10:30:31.549Z,22.37
2017-09-15T10:32:59.156Z,21.91
2017-09-15T10:35:26.958Z,21.79
2017-09-15T10:37:55.211Z,21.36
2017-09-15T10:40:22.990Z,21.44
2017-09-15T10:42:50.547Z,21.70
2017-09-15T10:45:18.126Z,21.26
2017-09-15T10:47:45.694Z,20.97
2017-09-15T10:50:13.603Z,22.04
2017-09-15T10:52:41.179Z,22.08
2017-09-15T10:55:08.736Z,22.21
2017-09-15T10:57:41.984Z,22.22
2017-09-15T11:00:13.521Z,21.41
2017-09-15T11:02:41.273Z,22.65
2017-09-15T11:05:09.022Z,23.07
2017-09-15T11:07:37.566Z,21.38
2017-09-15T11:10:05.146Z,21.23
2017-09-15T11:12:32.740Z,21.29
2017-09-15T11:15:00.335Z,21.59
2017-09-15T11:17:28.122Z,21.30
2017-09-15T11:19:55.741Z,21.66
2017-09-15T11:22:23.339Z,21.57
2017-09-15T11:24:50.873Z,21.65
2017-09-15T11:27:18.476Z,21.70
2017-09-15T11:29:46.038Z,21.73
2017-09-15T11:32:13.696Z,21.80
2017-09-15T11:34:41.565Z,22.07
2017-09-15T11:37:09.158Z,22.10
2017-09-15T11:39:36.754Z,21.39
2017-09-15T11:42:04.336Z,21.31
2017-09-15T11:44:31.911Z,21.17
2017-09-15T11:46:59.533Z,21.30
2017-09-15T11:49:27.120Z,21.65
2017-09-15T11:51:54.858Z,22.30
2017-09-15T11:54:22.430Z,21.89
2017-09-15T11:56:51.034Z,21.62
2017-09-15T11:59:18.575Z,21.03
2017-09-15T12:01:47.409Z,21.88
2017-09-15T12:04:19.981Z,21.83
2017-09-15T12:06:52.383Z,21.89
2017-09-15T12:09:22.268Z,20.80
2017-09-15T12:11:49.940Z,22.11
2017-09-15T12:14:17.519Z,21.65
2017-09-15T12:16:45.353Z,21.14
2017-09-15T12:19:12.950Z,20.65
2017-09-15T12:21:41.245Z,21.30
2017-09-15T12:24:09.800Z,22.09
2017-09-15T12:26:37.384Z,22.40
2017-09-15T12:29:04.972Z,22.04
2017-09-15T12:31:32.634Z,22.11
2017-09-15T12:34:05.063Z,22.08
2017-09-15T12:36:34.130Z,22.07
2017-09-15T12:39:06.779Z,22.20
2017-09-15T12:41:36.944Z,22.51
2017-09-15T12:44:04.925Z,22.41
2017-09-15T12:46:36.845Z,22.29
2017-09-15T12:49:04.471Z,22.33
2017-09-15T12:51:34.923Z,22.32
2017-09-15T12:54:02.497Z,21.37
2017-09-15T12:56:33.067Z,21.67
2017-09-15T12:59:00.690Z,23.01
2017-09-15T13:01:28.295Z,23.34
2017-09-15T13:03:55.907Z,23.22
2017-09-15T13:06:23.566Z,23.49
2017-09-15T13:08:51.171Z,23.18
2017-09-15T13:11:18.914Z,22.78
2017-09-15T13:13:46.454Z,23.45
2017-09-15T13:16:14.036Z,23.58
2017-09-15T13:18:41.780Z,23.23
2017-09-15T13:21:09.335Z,23.79
2017-09-15T13:23:37.674Z,23.31
2017-09-15T13:26:05.222Z,23.00
2017-09-15T13:28:32.992Z,23.58
2017-09-15T13:31:00.594Z,23.59
2017-09-15T13:33:28.156Z,24.24
2017-09-15T13:35:55.748Z,24.02
2017-09-15T13:38:23.340Z,23.95
2017-09-15T13:40:50.902Z,24.40
2017-09-15T13:43:18.690Z,23.97
2017-09-15T13:45:46.326Z,23.92
2017-09-15T13:48:13.859Z,24.11
2017-09-15T13:50:41.633Z,24.09
2017-09-15T13:53:09.205Z,24.57
2017-09-15T13:55:36.983Z,24.84
2017-09-15T13:58:04.526Z,24.91
2017-09-15T14:00:32.115Z,25.01
2017-09-15T14:02:59.670Z,24.90
2017-09-15T14:05:27.252Z,25.13
2017-09-15T14:07:55.351Z,25.36
2017-09-15T14:10:24.683Z,24.97
2017-09-15T14:12:52.388Z,24.78
2017-09-15T14:15:20.031Z,24.49
2017-09-15T14:17:48.335Z,24.78
2017-09-15T14:20:16.323Z,24.66
2017-09-15T14:22:43.989Z,24.81
2017-09-15T14:25:11.523Z,24.91
2017-09-15T14:27:39.073Z,24.54
2017-09-15T14:30:07.119Z,25.07
2017-09-15T14:32:34.726Z,25.03
2017-09-15T14:35:02.589Z,25.43
2017-09-15T14:37:30.186Z,25.78
2017-09-15T14:39:57.767Z,25.70
2017-09-15T14:42:25.990Z,25.39
2017-09-15T14:44:53.617Z,25.70
2017-09-15T14:47:21.574Z,25.61
2017-09-15T14:49:49.365Z,25.62
2017-09-15T14:52:16.956Z,25.83
2017-09-15T14:54:45.509Z,25.64
2017-09-15T14:57:13.367Z,26.34
2017-09-15T14:59:41.437Z,26.04
2017-09-15T15:02:10.998Z,26.00
2017-09-15T15:04:39.030Z,26.30
2017-09-15T15:07:06.793Z,26.40
2017-09-15T15:09:34.395Z,26.59
2017-09-15T15:12:02.005Z,26.82
2017-09-15T15:14:29.867Z,26.89
2017-09-15T15:16:57.485Z,27.04
2017-09-15T15:19:25.403Z,27.22
2017-09-15T15:21:52.992Z,27.28
2017-09-15T15:24:20.578Z,27.09
2017-09-15T15:26:48.965Z,27.27
2017-09-15T15:29:16.598Z,27.51
2017-09-15T15:31:44.205Z,27.76
2017-09-15T15:34:11.842Z,27.81
2017-09-15T15:36:39.604Z,27.59
2017-09-15T15:39:07.212Z,27.65
2017-09-15T15:41:34.773Z,27.94
2017-09-15T15:44:02.713Z,28.11
2017-09-15T15:46:30.574Z,28.12
2017-09-15T15:48:58.182Z,28.38
2017-09-15T15:51:26.301Z,28.28
2017-09-15T15:53:54.122Z,28.52
2017-09-15T15:56:21.913Z,28.53
2017-09-15T15:58:49.503Z,28.57
2017-09-15T16:01:17.131Z,28.69
2017-09-15T16:03:45.090Z,28.91
2017-09-15T16:06:13.482Z,29.17
2017-09-15T16:08:41.120Z,28.99
2017-09-15T16:11:08.800Z,29.18
2017-09-15T16:13:36.856Z,29.14
2017-09-15T16:16:04.577Z,29.47
2017-09-15T16:18:33.729Z,29.64
2017-09-15T16:21:02.462Z,29.71
2017-09-15T16:23:30.793Z,30.02
2017-09-15T16:25:58.479Z,30.02
2017-09-15T16:28:26.539Z,30.10
2017-09-15T16:30:54.332Z,30.22
2017-09-15T16:33:21.983Z,30.86
2017-09-15T16:35:49.986Z,34.22
2017-09-15T16:38:23.324Z,31.53
2017-09-15T16:40:57.492Z,30.47
2017-09-15T16:43:31.534Z,31.70
2017-09-15T16:46:04.764Z,30.89
2017-09-15T16:48:38.130Z,31.03
2017-09-15T16:51:06.122Z,31.48
2017-09-15T16:53:33.702Z,32.39
2017-09-15T16:56:01.401Z,32.87
2017-09-15T16:58:29.311Z,32.96
2017-09-15T17:01:00.149Z,34.10
2017-09-15T17:03:28.069Z,33.92
2017-09-15T17:05:59.263Z,35.14
2017-09-15T17:08:27.572Z,35.07
2017-09-15T17:10:57.419Z,33.66
2017-09-15T17:13:28.835Z,34.75
2017-09-15T17:15:56.776Z,33.27
2017-09-15T17:18:24.398Z,34.29
2017-09-15T17:20:52.883Z,34.13
2017-09-15T17:23:20.466Z,34.09
2017-09-15T17:25:52.358Z,33.10
2017-09-15T17:28:20.075Z,35.04
2017-09-15T17:30:48.998Z,34.51
2017-09-15T17:33:19.410Z,34.99
2017-09-15T17:35:47.100Z,35.27
2017-09-15T17:38:14.749Z,34.50
2017-09-15T17:40:42.311Z,36.06
2017-09-15T17:43:09.903Z,35.66
2017-09-15T17:45:37.571Z,35.79
2017-09-15T17:48:06.334Z,35.59
2017-09-15T17:50:34.995Z,35.27
2017-09-15T17:53:02.642Z,35.00
2017-09-15T17:55:30.266Z,34.74
2017-09-15T17:57:58.462Z,35.43
2017-09-15T18:00:26.049Z,34.61
2017-09-15T18:02:53.685Z,33.99
2017-09-15T18:05:21.297Z,34.59
2017-09-15T18:07:48.927Z,34.99
2017-09-15T18:10:16.555Z,34.93
2017-09-15T18:12:44.117Z,35.27
2017-09-15T18:15:11.716Z,35.13
2017-09-15T18:17:39.679Z,35.16
2017-09-15T18:20:07.822Z,37.15
2017-09-15T18:22:35.399Z,36.99
2017-09-15T18:25:03.970Z,35.90
2017-09-15T18:27:31.573Z,37.12
2017-09-15T18:29:59.172Z,36.55
2017-09-15T18:32:26.770Z,36.83
2017-09-15T18:34:54.701Z,36.52
2017-09-15T18:37:22.283Z,37.19
2017-09-15T18:39:49.934Z,36.55
2017-09-15T18:42:18.498Z,37.14
2017-09-15T18:44:46.119Z,37.38
2017-09-15T18:47:13.743Z,37.00
2017-09-15T18:49:41.405Z,36.22
2017-09-15T18:52:09.069Z,36.88
2017-09-15T18:54:36.757Z,37.59
2017-09-15T18:57:04.540Z,38.29
2017-09-15T18:59:32.155Z,38.36
2017-09-15T19:01:59.831Z,39.01
2017-09-15T19:04:27.470Z,39.22
2017-09-15T19:06:55.252Z,39.51
2017-09-15T19:09:23.695Z,39.59
2017-09-15T19:11:51.332Z,39.00
2017-09-15T19:14:19.098Z,39.53
2017-09-15T19:16:46.787Z,40.08
2017-09-15T19:19:14.401Z,40.15
2017-09-15T19:21:41.982Z,40.34
2017-09-15T19:24:09.749Z,39.69
2017-09-15T19:26:38.404Z,39.84
2017-09-15T19:29:06.112Z,39.35
2017-09-15T19:31:33.756Z,38.98
2017-09-15T19:34:01.524Z,39.55
2017-09-15T19:36:29.112Z,39.42
2017-09-15T19:38:56.784Z,39.56
2017-09-15T19:41:25.426Z,40.20
2017-09-15T19:43:54.119Z,40.46
2017-09-15T19:46:23.395Z,40.23
2017-09-15T19:48:50.998Z,41.18
2017-09-15T19:51:19.238Z,40.52
2017-09-15T19:53:46.873Z,41.64
2017-09-15T19:56:15.160Z,41.54
2017-09-15T19:58:42.780Z,40.54
2017-09-15T20:01:11.049Z,40.96
2017-09-15T20:03:38.724Z,40.72
2017-09-15T20:06:06.285Z,40.48
2017-09-15T20:08:33.889Z,40.89
2017-09-15T20:11:01.512Z,40.70
2017-09-15T20:13:29.066Z,40.88
2017-09-15T20:15:56.660Z,41.29
2017-09-15T20:18:25.727Z,40.90
2017-09-15T20:20:53.313Z,40.93
2017-09-15T20:23:21.470Z,41.32
2017-09-15T20:25:49.016Z,41.13
2017-09-15T20:28:16.615Z,41.34
2017-09-15T20:30:44.238Z,41.63
2017-09-15T20:33:11.791Z,41.03
2017-09-15T20:35:39.350Z,41.20
2017-09-15T20:38:06.971Z,41.31
2017-09-15T20:40:34.544Z,41.32
2017-09-15T20:43:02.141Z,41.50
2017-09-15T20:45:29.736Z,41.72
2017-09-15T20:47:57.291Z,42.44
2017-09-15T20:50:24.912Z,42.57
2017-09-15T20:52:52.572Z,42.02
2017-09-15T20:55:20.091Z,41.99
2017-09-15T20:57:47.691Z,41.68
2017-09-15T21:00:15.397Z,41.62
2017-09-15T21:02:42.947Z,42.05
2017-09-15T21:05:10.489Z,42.27
2017-09-15T21:07:38.112Z,42.11
2017-09-15T21:10:06.242Z,42.07
2017-09-15T21:12:34.019Z,42.20
2017-09-15T21:15:01.616Z,41.87
2017-09-15T21:17:29.212Z,42.32
2017-09-15T21:19:56.819Z,42.16
2017-09-15T21:22:24.429Z,41.87
2017-09-15T21:24:52.042Z,42.32
2017-09-15T21:27:19.704Z,42.04
2017-09-15T21:29:47.335Z,41.84
2017-09-15T21:32:14.918Z,41.99
2017-09-15T21:34:42.688Z,42.04
2017-09-15T21:37:10.289Z,42.53
2017-09-15T21:39:37.882Z,42.42
2017-09-15T21:42:05.462Z,42.60
2017-09-15T21:44:33.059Z,42.55
2017-09-15T21:47:01.073Z,42.44
2017-09-15T21:49:31.134Z,42.38
2017-09-15T21:51:58.784Z,42.52
2017-09-15T21:54:26.385Z,42.66
2017-09-15T21:56:53.924Z,42.67
2017-09-15T21:59:21.470Z,42.85
2017-09-15T22:01:49.088Z,43.26
2017-09-15T22:04:39.335Z,43.55
2017-09-15T22:09:51.282Z,43.42
2017-09-15T22:12:18.869Z,43.69
2017-09-15T22:14:46.459Z,43.65
2017-09-15T22:17:14.020Z,43.54
2017-09-15T22:19:42.200Z,43.91
2017-09-15T22:22:09.791Z,44.12
2017-09-15T22:24:43.435Z,44.14
2017-09-15T22:27:20.734Z,44.90
2017-09-15T22:30:05.283Z,44.93
2017-09-15T22:32:33.017Z,44.71
2017-09-15T22:35:00.557Z,45.66
2017-09-15T22:37:28.167Z,45.97
2017-09-15T22:39:55.740Z,45.89
2017-09-15T22:42:23.551Z,46.43
2017-09-15T22:44:51.157Z,46.96
2017-09-15T22:47:18.768Z,47.14
2017-09-15T22:49:52.736Z,47.06
2017-09-15T22:52:20.864Z,47.00
2017-09-15T22:54:48.505Z,47.23
2017-09-15T22:57:16.087Z,47.57
2017-09-15T22:59:43.710Z,47.67
2017-09-15T23:02:11.297Z,47.76
2017-09-15T23:04:39.064Z,48.06
2017-09-15T23:07:06.651Z,48.30
2017-09-15T23:09:34.284Z,48.68
2017-09-15T23:12:01.912Z,48.80
2017-09-15T23:14:29.592Z,48.85
2017-09-15T23:16:57.229Z,48.91
2017-09-15T23:19:25.023Z,49.30
2017-09-15T23:21:52.915Z,49.95
2017-09-15T23:24:20.977Z,49.67
2017-09-15T23:26:48.891Z,50.07
2017-09-15T23:29:16.852Z,50.28
2017-09-15T23:31:45.113Z,50.30
2017-09-15T23:34:13.169Z,50.36
2017-09-15T23:36:40.799Z,50.81
2017-09-15T23:39:08.445Z,51.07
2017-09-15T23:41:36.496Z,51.28
2017-09-15T23:44:04.100Z,52.08
2017-09-15T23:46:31.787Z,52.26
2017-09-15T23:48:59.599Z,52.90
2017-09-15T23:51:27.457Z,53.46
2017-09-15T23:53:55.091Z,52.94
2017-09-15T23:56:22.695Z,53.64
2017-09-15T23:58:50.245Z,53.87
